sensor_id;sensor_type;location;lat;lon;timestamp;temperature;humidity
59307;DHT22;47983;53.016;-2.260;2023-05-07T00:01:45;13.70;99.90
59307;DHT22;47983;53.016;-2.260;2023-05-07T00:04:13;13.80;99.90
59307;DHT22;47983;53.016;-2.260;2023-05-07T00:06:41;13.80;99.90
59307;DHT22;47983;53.016;-2.260;2023-05-07T00:09:10;13.80;99.90
59307;DHT22;47983;53.016;-2.260;2023-05-07T00:11:38;13.80;99.90
59307;DHT22;47983;53.016;-2.260;2023-05-07T00:14:06;13.80;99.90
59307;DHT22;47983;53.016;-2.260;2023-05-07T00:16:34;13.80;99.90
59307;DHT22;47983;53.016;-2.260;2023-05-07T00:19:02;13.80;99.90
59307;DHT22;47983;53.016;-2.260;2023-05-07T00:21:29;13.80;99.90
59307;DHT22;47983;53.016;-2.260;2023-05-07T00:23:58;13.80;99.90
59307;DHT22;47983;53.016;-2.260;2023-05-07T00:28:53;13.80;99.90
59307;DHT22;47983;53.016;-2.260;2023-05-07T00:31:24;13.80;99.90
59307;DHT22;47983;53.016;-2.260;2023-05-07T00:33:52;13.80;99.90
59307;DHT22;47983;53.016;-2.260;2023-05-07T00:36:19;13.80;99.90
59307;DHT22;47983;53.016;-2.260;2023-05-07T00:38:47;13.80;99.90
59307;DHT22;47983;53.016;-2.260;2023-05-07T00:41:15;13.80;99.90
59307;DHT22;47983;53.016;-2.260;2023-05-07T00:43:43;13.80;99.90
59307;DHT22;47983;53.016;-2.260;2023-05-07T00:46:13;13.80;99.90
59307;DHT22;47983;53.016;-2.260;2023-05-07T00:48:42;13.80;99.90
59307;DHT22;47983;53.016;-2.260;2023-05-07T00:51:10;13.80;99.90
59307;DHT22;47983;53.016;-2.260;2023-05-07T00:53:40;13.80;99.90
59307;DHT22;47983;53.016;-2.260;2023-05-07T00:56:08;13.80;99.90
59307;DHT22;47983;53.016;-2.260;2023-05-07T00:58:37;13.80;99.90
59307;DHT22;47983;53.016;-2.260;2023-05-07T01:01:05;13.80;99.90
59307;DHT22;47983;53.016;-2.260;2023-05-07T01:03:35;13.80;99.90
59307;DHT22;47983;53.016;-2.260;2023-05-07T01:06:06;13.80;99.90
59307;DHT22;47983;53.016;-2.260;2023-05-07T01:08:35;13.80;99.90
59307;DHT22;47983;53.016;-2.260;2023-05-07T01:11:03;13.80;99.90
59307;DHT22;47983;53.016;-2.260;2023-05-07T01:13:32;13.70;99.90
59307;DHT22;47983;53.016;-2.260;2023-05-07T01:15:59;13.70;99.90
59307;DHT22;47983;53.016;-2.260;2023-05-07T01:18:27;13.70;99.90
59307;DHT22;47983;53.016;-2.260;2023-05-07T01:20:59;13.70;99.90
59307;DHT22;47983;53.016;-2.260;2023-05-07T01:23:29;13.70;99.90
59307;DHT22;47983;53.016;-2.260;2023-05-07T01:25:57;13.70;99.90
59307;DHT22;47983;53.016;-2.260;2023-05-07T01:28:27;13.70;99.90
59307;DHT22;47983;53.016;-2.260;2023-05-07T01:31:03;13.70;99.90
59307;DHT22;47983;53.016;-2.260;2023-05-07T01:33:35;13.60;99.90
59307;DHT22;47983;53.016;-2.260;2023-05-07T01:36:05;13.60;99.90
59307;DHT22;47983;53.016;-2.260;2023-05-07T01:38:36;13.60;99.90
59307;DHT22;47983;53.016;-2.260;2023-05-07T01:43:36;13.60;99.90
59307;DHT22;47983;53.016;-2.260;2023-05-07T01:46:04;13.60;99.90
59307;DHT22;47983;53.016;-2.260;2023-05-07T01:48:32;13.60;99.90
59307;DHT22;47983;53.016;-2.260;2023-05-07T01:51:02;13.60;99.90
59307;DHT22;47983;53.016;-2.260;2023-05-07T01:53:38;13.60;99.90
59307;DHT22;47983;53.016;-2.260;2023-05-07T01:56:07;13.50;99.90
59307;DHT22;47983;53.016;-2.260;2023-05-07T01:58:37;13.20;99.90
59307;DHT22;47983;53.016;-2.260;2023-05-07T02:01:05;13.50;99.90
59307;DHT22;47983;53.016;-2.260;2023-05-07T02:03:33;13.50;99.90
59307;DHT22;47983;53.016;-2.260;2023-05-07T02:06:09;13.50;99.90
59307;DHT22;47983;53.016;-2.260;2023-05-07T02:08:38;13.50;99.90
59307;DHT22;47983;53.016;-2.260;2023-05-07T02:11:06;13.50;99.90
59307;DHT22;47983;53.016;-2.260;2023-05-07T02:13:36;13.50;99.90
59307;DHT22;47983;53.016;-2.260;2023-05-07T02:16:05;13.40;99.90
59307;DHT22;47983;53.016;-2.260;2023-05-07T02:18:35;13.40;99.90
59307;DHT22;47983;53.016;-2.260;2023-05-07T02:21:03;13.40;99.90
59307;DHT22;47983;53.016;-2.260;2023-05-07T02:23:31;13.40;99.90
59307;DHT22;47983;53.016;-2.260;2023-05-07T02:25:58;13.40;99.90
59307;DHT22;47983;53.016;-2.260;2023-05-07T02:28:26;13.40;99.90
59307;DHT22;47983;53.016;-2.260;2023-05-07T02:30:59;13.40;99.90
59307;DHT22;47983;53.016;-2.260;2023-05-07T02:33:29;13.40;99.90
59307;DHT22;47983;53.016;-2.260;2023-05-07T02:36:06;13.40;99.90
59307;DHT22;47983;53.016;-2.260;2023-05-07T02:38:43;13.40;99.90
59307;DHT22;47983;53.016;-2.260;2023-05-07T02:41:11;13.40;99.90
59307;DHT22;47983;53.016;-2.260;2023-05-07T02:43:39;13.40;99.90
59307;DHT22;47983;53.016;-2.260;2023-05-07T02:46:08;13.40;99.90
59307;DHT22;47983;53.016;-2.260;2023-05-07T02:48:40;13.40;99.90
59307;DHT22;47983;53.016;-2.260;2023-05-07T02:51:08;13.40;99.90
59307;DHT22;47983;53.016;-2.260;2023-05-07T02:53:38;13.40;99.90
59307;DHT22;47983;53.016;-2.260;2023-05-07T02:56:06;13.40;99.90
59307;DHT22;47983;53.016;-2.260;2023-05-07T02:58:37;13.40;99.90
59307;DHT22;47983;53.016;-2.260;2023-05-07T03:01:07;13.40;99.90
59307;DHT22;47983;53.016;-2.260;2023-05-07T03:03:39;13.40;99.90
59307;DHT22;47983;53.016;-2.260;2023-05-07T03:06:07;13.30;99.90
59307;DHT22;47983;53.016;-2.260;2023-05-07T03:08:35;13.30;99.90
59307;DHT22;47983;53.016;-2.260;2023-05-07T03:11:07;13.30;99.90
59307;DHT22;47983;53.016;-2.260;2023-05-07T03:13:34;13.30;99.90
59307;DHT22;47983;53.016;-2.260;2023-05-07T03:16:02;13.20;99.90
59307;DHT22;47983;53.016;-2.260;2023-05-07T03:18:30;13.20;99.90
59307;DHT22;47983;53.016;-2.260;2023-05-07T03:20:59;13.10;99.90
59307;DHT22;47983;53.016;-2.260;2023-05-07T03:23:27;13.10;99.90
59307;DHT22;47983;53.016;-2.260;2023-05-07T03:25:54;13.10;99.90
59307;DHT22;47983;53.016;-2.260;2023-05-07T03:28:23;13.10;99.90
59307;DHT22;47983;53.016;-2.260;2023-05-07T03:30:56;12.50;99.90
59307;DHT22;47983;53.016;-2.260;2023-05-07T03:33:24;12.90;99.90
59307;DHT22;47983;53.016;-2.260;2023-05-07T03:35:53;12.90;99.90
59307;DHT22;47983;53.016;-2.260;2023-05-07T03:38:24;12.90;99.90
59307;DHT22;47983;53.016;-2.260;2023-05-07T03:40:52;12.80;99.90
59307;DHT22;47983;53.016;-2.260;2023-05-07T03:43:20;12.80;99.90
59307;DHT22;47983;53.016;-2.260;2023-05-07T03:45:54;12.70;99.90
59307;DHT22;47983;53.016;-2.260;2023-05-07T03:48:25;12.70;99.90
59307;DHT22;47983;53.016;-2.260;2023-05-07T03:50:57;12.70;99.90
59307;DHT22;47983;53.016;-2.260;2023-05-07T03:53:27;12.60;99.90
59307;DHT22;47983;53.016;-2.260;2023-05-07T03:55:55;12.60;99.90
59307;DHT22;47983;53.016;-2.260;2023-05-07T03:58:23;12.60;99.90
59307;DHT22;47983;53.016;-2.260;2023-05-07T04:00:52;12.60;99.90
59307;DHT22;47983;53.016;-2.260;2023-05-07T04:03:26;12.60;99.90
59307;DHT22;47983;53.016;-2.260;2023-05-07T04:05:57;12.60;99.90
59307;DHT22;47983;53.016;-2.260;2023-05-07T04:08:25;12.60;99.90
59307;DHT22;47983;53.016;-2.260;2023-05-07T04:10:55;12.60;99.90
59307;DHT22;47983;53.016;-2.260;2023-05-07T04:13:25;12.50;99.90
59307;DHT22;47983;53.016;-2.260;2023-05-07T04:15:55;12.50;99.90
59307;DHT22;47983;53.016;-2.260;2023-05-07T04:18:24;12.50;99.90
59307;DHT22;47983;53.016;-2.260;2023-05-07T04:20:52;12.40;99.90
59307;DHT22;47983;53.016;-2.260;2023-05-07T04:23:21;12.50;99.90
59307;DHT22;47983;53.016;-2.260;2023-05-07T04:25:50;12.40;99.90
59307;DHT22;47983;53.016;-2.260;2023-05-07T04:28:24;12.40;99.90
59307;DHT22;47983;53.016;-2.260;2023-05-07T04:30:53;12.40;99.90
59307;DHT22;47983;53.016;-2.260;2023-05-07T04:33:22;12.40;99.90
59307;DHT22;47983;53.016;-2.260;2023-05-07T04:35:50;12.40;99.90
59307;DHT22;47983;53.016;-2.260;2023-05-07T04:38:18;12.40;99.90
59307;DHT22;47983;53.016;-2.260;2023-05-07T04:40:49;12.40;99.90
59307;DHT22;47983;53.016;-2.260;2023-05-07T04:43:21;12.30;99.90
59307;DHT22;47983;53.016;-2.260;2023-05-07T04:45:51;12.40;99.90
59307;DHT22;47983;53.016;-2.260;2023-05-07T04:48:22;12.40;99.90
59307;DHT22;47983;53.016;-2.260;2023-05-07T04:50:51;12.30;99.90
59307;DHT22;47983;53.016;-2.260;2023-05-07T04:53:20;12.40;99.90
59307;DHT22;47983;53.016;-2.260;2023-05-07T04:55:55;12.30;99.90
59307;DHT22;47983;53.016;-2.260;2023-05-07T04:58:27;12.40;99.90
59307;DHT22;47983;53.016;-2.260;2023-05-07T05:00:55;12.40;99.90
59307;DHT22;47983;53.016;-2.260;2023-05-07T05:05:52;12.40;99.90
59307;DHT22;47983;53.016;-2.260;2023-05-07T05:08:22;12.40;99.90
59307;DHT22;47983;53.016;-2.260;2023-05-07T05:10:50;12.40;99.90
59307;DHT22;47983;53.016;-2.260;2023-05-07T05:13:18;12.50;99.90
59307;DHT22;47983;53.016;-2.260;2023-05-07T05:15:46;12.40;99.90
59307;DHT22;47983;53.016;-2.260;2023-05-07T05:18:15;12.40;99.90
59307;DHT22;47983;53.016;-2.260;2023-05-07T05:20:42;12.50;99.90
59307;DHT22;47983;53.016;-2.260;2023-05-07T05:23:12;12.50;99.90
59307;DHT22;47983;53.016;-2.260;2023-05-07T05:25:42;12.50;99.90
59307;DHT22;47983;53.016;-2.260;2023-05-07T05:28:12;12.50;99.90
59307;DHT22;47983;53.016;-2.260;2023-05-07T05:30:40;12.60;99.90
59307;DHT22;47983;53.016;-2.260;2023-05-07T05:33:09;12.60;99.90
59307;DHT22;47983;53.016;-2.260;2023-05-07T05:35:44;12.60;99.90
59307;DHT22;47983;53.016;-2.260;2023-05-07T05:38:13;12.60;99.90
59307;DHT22;47983;53.016;-2.260;2023-05-07T05:40:41;12.60;99.90
59307;DHT22;47983;53.016;-2.260;2023-05-07T05:43:09;12.60;99.90
59307;DHT22;47983;53.016;-2.260;2023-05-07T05:45:38;12.60;99.90
59307;DHT22;47983;53.016;-2.260;2023-05-07T05:48:09;12.70;99.90
59307;DHT22;47983;53.016;-2.260;2023-05-07T05:50:37;12.70;99.90
59307;DHT22;47983;53.016;-2.260;2023-05-07T05:53:07;12.70;99.90
59307;DHT22;47983;53.016;-2.260;2023-05-07T05:55:34;12.80;99.90
59307;DHT22;47983;53.016;-2.260;2023-05-07T05:58:02;12.80;99.90
59307;DHT22;47983;53.016;-2.260;2023-05-07T06:00:34;12.80;99.90
59307;DHT22;47983;53.016;-2.260;2023-05-07T06:03:04;12.90;99.90
59307;DHT22;47983;53.016;-2.260;2023-05-07T06:05:32;12.90;99.90
59307;DHT22;47983;53.016;-2.260;2023-05-07T06:08:03;12.90;99.90
59307;DHT22;47983;53.016;-2.260;2023-05-07T06:10:36;12.90;99.90
59307;DHT22;47983;53.016;-2.260;2023-05-07T06:13:06;12.90;99.90
59307;DHT22;47983;53.016;-2.260;2023-05-07T06:15:37;13.00;99.90
59307;DHT22;47983;53.016;-2.260;2023-05-07T06:18:09;13.00;99.90
59307;DHT22;47983;53.016;-2.260;2023-05-07T06:20:41;13.10;99.90
59307;DHT22;47983;53.016;-2.260;2023-05-07T06:23:14;13.10;99.90
59307;DHT22;47983;53.016;-2.260;2023-05-07T06:25:50;13.10;99.90
59307;DHT22;47983;53.016;-2.260;2023-05-07T06:28:23;13.10;99.90
59307;DHT22;47983;53.016;-2.260;2023-05-07T06:30:51;13.20;99.90
59307;DHT22;47983;53.016;-2.260;2023-05-07T06:33:19;13.10;99.90
59307;DHT22;47983;53.016;-2.260;2023-05-07T06:35:47;13.10;99.90
59307;DHT22;47983;53.016;-2.260;2023-05-07T06:38:14;13.10;99.90
59307;DHT22;47983;53.016;-2.260;2023-05-07T06:40:43;13.10;99.90
59307;DHT22;47983;53.016;-2.260;2023-05-07T06:43:11;13.10;99.90
59307;DHT22;47983;53.016;-2.260;2023-05-07T06:45:48;13.10;99.90
59307;DHT22;47983;53.016;-2.260;2023-05-07T06:48:16;13.10;99.90
59307;DHT22;47983;53.016;-2.260;2023-05-07T06:50:51;13.10;99.90
59307;DHT22;47983;53.016;-2.260;2023-05-07T06:53:19;13.10;99.90
59307;DHT22;47983;53.016;-2.260;2023-05-07T06:55:46;13.10;99.90
59307;DHT22;47983;53.016;-2.260;2023-05-07T06:58:16;13.10;99.90
59307;DHT22;47983;53.016;-2.260;2023-05-07T07:00:44;13.20;99.90
59307;DHT22;47983;53.016;-2.260;2023-05-07T07:03:14;13.10;99.90
59307;DHT22;47983;53.016;-2.260;2023-05-07T07:05:42;13.10;99.90
59307;DHT22;47983;53.016;-2.260;2023-05-07T07:08:10;13.10;99.90
59307;DHT22;47983;53.016;-2.260;2023-05-07T07:10:38;13.10;99.90
59307;DHT22;47983;53.016;-2.260;2023-05-07T07:13:08;13.20;99.90
59307;DHT22;47983;53.016;-2.260;2023-05-07T07:15:43;13.10;99.90
59307;DHT22;47983;53.016;-2.260;2023-05-07T07:18:11;13.10;99.90
59307;DHT22;47983;53.016;-2.260;2023-05-07T07:20:39;13.00;99.90
59307;DHT22;47983;53.016;-2.260;2023-05-07T07:23:08;13.00;99.90
59307;DHT22;47983;53.016;-2.260;2023-05-07T07:25:36;12.90;99.90
59307;DHT22;47983;53.016;-2.260;2023-05-07T07:28:05;12.90;99.90
59307;DHT22;47983;53.016;-2.260;2023-05-07T07:30:33;12.90;99.90
59307;DHT22;47983;53.016;-2.260;2023-05-07T07:33:02;12.90;99.90
59307;DHT22;47983;53.016;-2.260;2023-05-07T07:35:34;12.90;99.90
59307;DHT22;47983;53.016;-2.260;2023-05-07T07:38:04;12.90;99.90
59307;DHT22;47983;53.016;-2.260;2023-05-07T07:40:35;12.90;99.90
59307;DHT22;47983;53.016;-2.260;2023-05-07T07:43:05;13.00;99.90
59307;DHT22;47983;53.016;-2.260;2023-05-07T07:45:34;13.10;99.90
59307;DHT22;47983;53.016;-2.260;2023-05-07T07:48:02;13.20;99.90
59307;DHT22;47983;53.016;-2.260;2023-05-07T07:50:33;13.30;99.90
59307;DHT22;47983;53.016;-2.260;2023-05-07T07:53:14;13.50;99.90
59307;DHT22;47983;53.016;-2.260;2023-05-07T07:55:44;13.50;99.90
59307;DHT22;47983;53.016;-2.260;2023-05-07T07:58:15;13.50;99.90
59307;DHT22;47983;53.016;-2.260;2023-05-07T08:00:42;13.70;99.90
59307;DHT22;47983;53.016;-2.260;2023-05-07T08:03:11;13.80;99.90
59307;DHT22;47983;53.016;-2.260;2023-05-07T08:05:44;13.80;99.90
59307;DHT22;47983;53.016;-2.260;2023-05-07T08:08:11;14.00;99.90
59307;DHT22;47983;53.016;-2.260;2023-05-07T08:10:40;14.00;99.90
59307;DHT22;47983;53.016;-2.260;2023-05-07T08:13:17;14.00;99.90
59307;DHT22;47983;53.016;-2.260;2023-05-07T08:15:45;14.00;99.90
59307;DHT22;47983;53.016;-2.260;2023-05-07T08:18:14;14.00;99.90
59307;DHT22;47983;53.016;-2.260;2023-05-07T08:20:44;14.00;99.90
59307;DHT22;47983;53.016;-2.260;2023-05-07T08:23:16;14.10;99.90
59307;DHT22;47983;53.016;-2.260;2023-05-07T08:25:48;14.20;99.90
59307;DHT22;47983;53.016;-2.260;2023-05-07T08:28:16;14.20;99.90
59307;DHT22;47983;53.016;-2.260;2023-05-07T08:30:45;14.20;99.90
59307;DHT22;47983;53.016;-2.260;2023-05-07T08:33:13;14.30;99.90
59307;DHT22;47983;53.016;-2.260;2023-05-07T08:35:40;14.30;99.90
59307;DHT22;47983;53.016;-2.260;2023-05-07T08:38:10;14.30;99.90
59307;DHT22;47983;53.016;-2.260;2023-05-07T08:40:39;14.40;99.90
59307;DHT22;47983;53.016;-2.260;2023-05-07T08:43:18;14.40;99.90
59307;DHT22;47983;53.016;-2.260;2023-05-07T08:45:49;14.50;99.90
59307;DHT22;47983;53.016;-2.260;2023-05-07T08:48:22;14.60;99.90
59307;DHT22;47983;53.016;-2.260;2023-05-07T08:50:59;14.70;99.90
59307;DHT22;47983;53.016;-2.260;2023-05-07T08:53:27;14.70;99.90
59307;DHT22;47983;53.016;-2.260;2023-05-07T08:55:55;14.80;99.90
59307;DHT22;47983;53.016;-2.260;2023-05-07T08:58:23;14.80;99.90
59307;DHT22;47983;53.016;-2.260;2023-05-07T09:00:53;14.80;99.90
59307;DHT22;47983;53.016;-2.260;2023-05-07T09:03:22;14.90;99.90
59307;DHT22;47983;53.016;-2.260;2023-05-07T09:05:52;14.90;99.90
59307;DHT22;47983;53.016;-2.260;2023-05-07T09:08:25;15.00;99.90
59307;DHT22;47983;53.016;-2.260;2023-05-07T09:10:54;15.00;99.90
59307;DHT22;47983;53.016;-2.260;2023-05-07T09:13:23;15.10;99.90
59307;DHT22;47983;53.016;-2.260;2023-05-07T09:15:51;15.30;99.90
59307;DHT22;47983;53.016;-2.260;2023-05-07T09:18:20;15.40;99.90
59307;DHT22;47983;53.016;-2.260;2023-05-07T09:20:48;15.50;99.90
59307;DHT22;47983;53.016;-2.260;2023-05-07T09:23:20;15.60;99.90
59307;DHT22;47983;53.016;-2.260;2023-05-07T09:25:48;15.60;99.90
59307;DHT22;47983;53.016;-2.260;2023-05-07T09:28:23;16.50;99.90
59307;DHT22;47983;53.016;-2.260;2023-05-07T09:30:51;15.70;99.90
59307;DHT22;47983;53.016;-2.260;2023-05-07T09:33:24;15.80;99.90
59307;DHT22;47983;53.016;-2.260;2023-05-07T09:35:54;16.00;99.90
59307;DHT22;47983;53.016;-2.260;2023-05-07T09:38:22;16.00;99.90
59307;DHT22;47983;53.016;-2.260;2023-05-07T09:41:11;16.20;99.90
59307;DHT22;47983;53.016;-2.260;2023-05-07T09:44:05;16.40;99.90
59307;DHT22;47983;53.016;-2.260;2023-05-07T09:46:43;16.40;99.90
59307;DHT22;47983;53.016;-2.260;2023-05-07T09:49:23;16.50;99.90
59307;DHT22;47983;53.016;-2.260;2023-05-07T09:52:00;16.60;99.90
59307;DHT22;47983;53.016;-2.260;2023-05-07T09:54:35;16.60;99.90
59307;DHT22;47983;53.016;-2.260;2023-05-07T09:57:07;16.40;99.90
59307;DHT22;47983;53.016;-2.260;2023-05-07T09:59:37;16.40;99.90
59307;DHT22;47983;53.016;-2.260;2023-05-07T10:02:10;16.40;99.90
59307;DHT22;47983;53.016;-2.260;2023-05-07T10:04:46;16.40;99.90
59307;DHT22;47983;53.016;-2.260;2023-05-07T10:07:18;16.50;99.90
59307;DHT22;47983;53.016;-2.260;2023-05-07T10:09:50;16.80;99.90
59307;DHT22;47983;53.016;-2.260;2023-05-07T10:12:29;16.80;99.90
59307;DHT22;47983;53.016;-2.260;2023-05-07T10:14:57;17.00;99.90
59307;DHT22;47983;53.016;-2.260;2023-05-07T10:17:26;17.10;99.90
59307;DHT22;47983;53.016;-2.260;2023-05-07T10:19:54;17.20;99.90
59307;DHT22;47983;53.016;-2.260;2023-05-07T10:22:23;17.30;99.90
59307;DHT22;47983;53.016;-2.260;2023-05-07T10:24:52;17.20;99.90
59307;DHT22;47983;53.016;-2.260;2023-05-07T10:27:22;17.20;99.90
59307;DHT22;47983;53.016;-2.260;2023-05-07T10:30:12;17.20;99.90
59307;DHT22;47983;53.016;-2.260;2023-05-07T10:32:49;17.30;99.90
59307;DHT22;47983;53.016;-2.260;2023-05-07T10:35:31;17.30;99.90
59307;DHT22;47983;53.016;-2.260;2023-05-07T10:38:03;17.30;99.90
59307;DHT22;47983;53.016;-2.260;2023-05-07T10:40:34;17.30;99.90
59307;DHT22;47983;53.016;-2.260;2023-05-07T10:43:04;17.40;99.90
59307;DHT22;47983;53.016;-2.260;2023-05-07T10:46:18;17.50;99.90
59307;DHT22;47983;53.016;-2.260;2023-05-07T10:52:16;17.70;99.90
59307;DHT22;47983;53.016;-2.260;2023-05-07T10:58:28;18.00;99.90
59307;DHT22;47983;53.016;-2.260;2023-05-07T11:01:52;18.10;99.90
59307;DHT22;47983;53.016;-2.260;2023-05-07T11:04:26;18.20;99.90
59307;DHT22;47983;53.016;-2.260;2023-05-07T11:07:28;18.20;99.90
59307;DHT22;47983;53.016;-2.260;2023-05-07T11:10:07;18.30;99.90
59307;DHT22;47983;53.016;-2.260;2023-05-07T11:12:51;18.30;99.90
59307;DHT22;47983;53.016;-2.260;2023-05-07T11:15:36;18.40;99.90
59307;DHT22;47983;53.016;-2.260;2023-05-07T11:18:17;18.40;99.90
59307;DHT22;47983;53.016;-2.260;2023-05-07T11:20:53;18.40;99.90
59307;DHT22;47983;53.016;-2.260;2023-05-07T11:26:27;18.70;99.90
59307;DHT22;47983;53.016;-2.260;2023-05-07T11:28:55;18.70;99.90
59307;DHT22;47983;53.016;-2.260;2023-05-07T11:31:27;18.70;99.90
59307;DHT22;47983;53.016;-2.260;2023-05-07T11:33:59;18.60;99.90
59307;DHT22;47983;53.016;-2.260;2023-05-07T11:36:32;18.60;99.90
59307;DHT22;47983;53.016;-2.260;2023-05-07T11:39:03;18.60;99.90
59307;DHT22;47983;53.016;-2.260;2023-05-07T11:41:37;18.80;99.90
59307;DHT22;47983;53.016;-2.260;2023-05-07T11:44:04;19.00;99.90
59307;DHT22;47983;53.016;-2.260;2023-05-07T11:46:32;19.00;99.90
59307;DHT22;47983;53.016;-2.260;2023-05-07T11:49:00;19.00;99.90
59307;DHT22;47983;53.016;-2.260;2023-05-07T11:51:28;18.80;99.90
59307;DHT22;47983;53.016;-2.260;2023-05-07T11:53:56;18.80;99.90
59307;DHT22;47983;53.016;-2.260;2023-05-07T11:56:24;18.70;99.90
59307;DHT22;47983;53.016;-2.260;2023-05-07T11:58:55;18.60;99.90
59307;DHT22;47983;53.016;-2.260;2023-05-07T12:01:22;19.10;99.90
59307;DHT22;47983;53.016;-2.260;2023-05-07T12:03:50;19.20;99.90
59307;DHT22;47983;53.016;-2.260;2023-05-07T12:06:19;19.70;99.90
59307;DHT22;47983;53.016;-2.260;2023-05-07T12:08:47;20.20;99.90
59307;DHT22;47983;53.016;-2.260;2023-05-07T12:11:22;20.50;99.90
59307;DHT22;47983;53.016;-2.260;2023-05-07T12:13:51;21.00;99.90
59307;DHT22;47983;53.016;-2.260;2023-05-07T12:16:19;21.40;99.90
59307;DHT22;47983;53.016;-2.260;2023-05-07T12:18:47;21.90;99.90
59307;DHT22;47983;53.016;-2.260;2023-05-07T12:21:16;22.30;99.90
59307;DHT22;47983;53.016;-2.260;2023-05-07T12:23:45;22.70;99.90
59307;DHT22;47983;53.016;-2.260;2023-05-07T12:26:12;23.00;99.90
59307;DHT22;47983;53.016;-2.260;2023-05-07T12:28:41;23.40;99.90
59307;DHT22;47983;53.016;-2.260;2023-05-07T12:31:09;23.40;99.90
59307;DHT22;47983;53.016;-2.260;2023-05-07T12:33:38;23.50;99.90
59307;DHT22;47983;53.016;-2.260;2023-05-07T12:36:07;23.70;99.90
59307;DHT22;47983;53.016;-2.260;2023-05-07T12:38:39;23.50;99.90
59307;DHT22;47983;53.016;-2.260;2023-05-07T12:41:09;24.00;99.20
59307;DHT22;47983;53.016;-2.260;2023-05-07T12:43:39;24.10;99.90
59307;DHT22;47983;53.016;-2.260;2023-05-07T12:46:12;24.20;98.80
59307;DHT22;47983;53.016;-2.260;2023-05-07T12:48:44;23.60;99.00
59307;DHT22;47983;53.016;-2.260;2023-05-07T12:51:15;23.60;99.60
59307;DHT22;47983;53.016;-2.260;2023-05-07T12:53:43;23.40;99.90
59307;DHT22;47983;53.016;-2.260;2023-05-07T12:56:11;23.40;99.90
59307;DHT22;47983;53.016;-2.260;2023-05-07T12:58:40;23.40;99.90
59307;DHT22;47983;53.016;-2.260;2023-05-07T13:01:08;23.20;99.90
59307;DHT22;47983;53.016;-2.260;2023-05-07T13:03:38;23.10;99.90
59307;DHT22;47983;53.016;-2.260;2023-05-07T13:06:08;23.10;99.90
59307;DHT22;47983;53.016;-2.260;2023-05-07T13:08:41;23.70;99.90
59307;DHT22;47983;53.016;-2.260;2023-05-07T13:11:13;23.80;99.60
59307;DHT22;47983;53.016;-2.260;2023-05-07T13:13:41;23.80;99.90
59307;DHT22;47983;53.016;-2.260;2023-05-07T13:18:42;23.70;99.90
59307;DHT22;47983;53.016;-2.260;2023-05-07T13:21:16;23.90;99.70
59307;DHT22;47983;53.016;-2.260;2023-05-07T13:23:44;23.80;97.60
59307;DHT22;47983;53.016;-2.260;2023-05-07T13:26:12;23.40;98.70
59307;DHT22;47983;53.016;-2.260;2023-05-07T13:28:56;23.10;99.90
59307;DHT22;47983;53.016;-2.260;2023-05-07T13:31:24;22.90;99.90
59307;DHT22;47983;53.016;-2.260;2023-05-07T13:33:55;22.80;99.90
59307;DHT22;47983;53.016;-2.260;2023-05-07T13:36:26;22.80;99.90
59307;DHT22;47983;53.016;-2.260;2023-05-07T13:38:57;23.00;99.90
59307;DHT22;47983;53.016;-2.260;2023-05-07T13:41:27;23.10;99.90
59307;DHT22;47983;53.016;-2.260;2023-05-07T13:43:56;23.20;99.90
59307;DHT22;47983;53.016;-2.260;2023-05-07T13:46:23;23.50;99.90
59307;DHT22;47983;53.016;-2.260;2023-05-07T13:48:51;24.20;99.90
59307;DHT22;47983;53.016;-2.260;2023-05-07T13:51:19;24.60;99.90
59307;DHT22;47983;53.016;-2.260;2023-05-07T13:53:46;25.20;96.80
59307;DHT22;47983;53.016;-2.260;2023-05-07T13:56:14;25.60;95.00
59307;DHT22;47983;53.016;-2.260;2023-05-07T13:58:42;25.70;95.50
59307;DHT22;47983;53.016;-2.260;2023-05-07T14:01:26;25.90;94.90
59307;DHT22;47983;53.016;-2.260;2023-05-07T14:03:55;25.60;93.10
59307;DHT22;47983;53.016;-2.260;2023-05-07T14:06:23;25.60;93.30
59307;DHT22;47983;53.016;-2.260;2023-05-07T14:08:51;25.30;93.30
59307;DHT22;47983;53.016;-2.260;2023-05-07T14:11:18;25.10;93.90
59307;DHT22;47983;53.016;-2.260;2023-05-07T14:13:46;24.80;93.40
59307;DHT22;47983;53.016;-2.260;2023-05-07T14:16:14;24.70;93.40
59307;DHT22;47983;53.016;-2.260;2023-05-07T14:18:42;24.90;94.70
59307;DHT22;47983;53.016;-2.260;2023-05-07T14:21:09;25.70;92.30
59307;DHT22;47983;53.016;-2.260;2023-05-07T14:23:38;25.60;92.50
59307;DHT22;47983;53.016;-2.260;2023-05-07T14:26:05;26.20;91.80
59307;DHT22;47983;53.016;-2.260;2023-05-07T14:28:33;26.20;91.70
59307;DHT22;47983;53.016;-2.260;2023-05-07T14:31:01;26.50;90.70
59307;DHT22;47983;53.016;-2.260;2023-05-07T14:33:28;26.80;89.30
59307;DHT22;47983;53.016;-2.260;2023-05-07T14:35:56;26.90;87.00
59307;DHT22;47983;53.016;-2.260;2023-05-07T14:38:24;27.20;88.90
59307;DHT22;47983;53.016;-2.260;2023-05-07T14:40:51;27.50;82.50
59307;DHT22;47983;53.016;-2.260;2023-05-07T14:43:22;27.50;82.80
59307;DHT22;47983;53.016;-2.260;2023-05-07T14:45:51;27.40;81.90
59307;DHT22;47983;53.016;-2.260;2023-05-07T14:48:19;27.30;83.20
59307;DHT22;47983;53.016;-2.260;2023-05-07T14:50:47;27.50;81.40
59307;DHT22;47983;53.016;-2.260;2023-05-07T14:53:15;27.50;82.70
59307;DHT22;47983;53.016;-2.260;2023-05-07T14:55:43;27.70;81.80
59307;DHT22;47983;53.016;-2.260;2023-05-07T14:58:11;27.80;82.70
59307;DHT22;47983;53.016;-2.260;2023-05-07T15:00:38;27.60;80.30
59307;DHT22;47983;53.016;-2.260;2023-05-07T15:03:09;27.20;81.30
59307;DHT22;47983;53.016;-2.260;2023-05-07T15:05:43;26.70;81.60
59307;DHT22;47983;53.016;-2.260;2023-05-07T15:08:11;26.50;82.80
59307;DHT22;47983;53.016;-2.260;2023-05-07T15:10:38;26.70;85.40
59307;DHT22;47983;53.016;-2.260;2023-05-07T15:13:13;27.00;84.60
59307;DHT22;47983;53.016;-2.260;2023-05-07T15:15:44;27.10;83.70
59307;DHT22;47983;53.016;-2.260;2023-05-07T15:18:12;27.70;76.90
59307;DHT22;47983;53.016;-2.260;2023-05-07T15:20:40;27.70;77.10
59307;DHT22;47983;53.016;-2.260;2023-05-07T15:23:09;27.90;74.90
59307;DHT22;47983;53.016;-2.260;2023-05-07T15:25:44;27.90;75.20
59307;DHT22;47983;53.016;-2.260;2023-05-07T15:28:13;27.60;75.80
59307;DHT22;47983;53.016;-2.260;2023-05-07T15:30:41;27.60;76.40
59307;DHT22;47983;53.016;-2.260;2023-05-07T15:33:09;27.70;77.20
59307;DHT22;47983;53.016;-2.260;2023-05-07T15:35:37;27.70;75.00
59307;DHT22;47983;53.016;-2.260;2023-05-07T15:38:05;27.90;75.60
59307;DHT22;47983;53.016;-2.260;2023-05-07T15:40:32;28.10;75.00
59307;DHT22;47983;53.016;-2.260;2023-05-07T15:43:03;28.50;72.60
59307;DHT22;47983;53.016;-2.260;2023-05-07T15:45:30;28.50;72.10
59307;DHT22;47983;53.016;-2.260;2023-05-07T15:47:58;28.50;73.40
59307;DHT22;47983;53.016;-2.260;2023-05-07T15:50:26;28.50;72.70
59307;DHT22;47983;53.016;-2.260;2023-05-07T15:52:54;28.30;73.80
59307;DHT22;47983;53.016;-2.260;2023-05-07T15:55:21;28.30;73.50